Time;durP1;ratioP1;P1;durP2;ratioP2;P2;SDS_P1;SDS_P2;PMS_P1;PMS_P2;Temp;Humidity;BMP_temperature;BMP_pressure;BME280_temperature;BME280_humidity;BME280_pressure;Samples;Min_cycle;Max_cycle;Signal;HPM_P1;HPM_P2
2022/04/10 00:00:37;;;;;;;2.72;1.42;;;;;;;5.36;75.94;99871.06;5557099;32;33022;-68
2022/04/10 00:03:40;;;;;;;2.33;1.40;;;;;;;5.35;76.29;99877.28;5556954;32;33161;-68
2022/04/10 00:06:43;;;;;;;3.90;1.70;;;;;;;5.40;75.90;99877.66;5570844;32;34937;-68
2022/04/10 00:09:45;;;;;;;2.10;1.37;;;;;;;5.36;75.93;99871.87;5570794;32;34607;-68
2022/04/10 00:12:48;;;;;;;2.37;1.37;;;;;;;5.30;75.62;99864.56;5571169;32;34224;-67
2022/04/10 00:15:51;;;;;;;2.75;1.42;;;;;;;5.27;75.97;99870.13;5557248;32;32967;-69
2022/04/10 00:18:54;;;;;;;1.40;1.27;;;;;;;5.16;77.28;99860.62;5557107;32;34897;-68
2022/04/10 00:21:57;;;;;;;2.37;1.52;;;;;;;5.12;76.88;99861.91;5557151;32;34258;-70
2022/04/10 00:25:00;;;;;;;2.87;1.50;;;;;;;5.02;77.63;99865.53;5570739;32;34318;-68
2022/04/10 00:28:03;;;;;;;2.45;1.30;;;;;;;5.04;77.95;99855.69;5571258;32;34260;-69
2022/04/10 00:31:05;;;;;;;2.28;1.30;;;;;;;5.01;78.38;99856.81;5570555;32;34902;-69
2022/04/10 00:34:08;;;;;;;2.30;1.58;;;;;;;4.96;79.04;99845.91;5571121;32;34738;-69
2022/04/10 00:37:10;;;;;;;2.03;1.42;;;;;;;4.98;80.21;99851.03;5570782;32;34334;-70
2022/04/10 00:40:14;;;;;;;3.05;1.60;;;;;;;4.87;79.36;99851.22;5544221;32;32666;-69
2022/04/10 00:43:17;;;;;;;2.15;1.20;;;;;;;4.90;79.55;99848.28;5570693;32;34247;-69
2022/04/10 00:46:19;;;;;;;2.22;1.48;;;;;;;4.96;79.05;99850.34;5570573;32;34334;-69
2022/04/10 00:49:22;;;;;;;1.92;1.48;;;;;;;4.90;79.19;99843.03;5556830;32;35476;-69
2022/04/10 00:52:26;;;;;;;2.87;1.50;;;;;;;4.86;80.21;99852.19;5569679;32;34186;-69
2022/04/10 00:55:30;;;;;;;2.42;1.50;;;;;;;4.88;79.09;99858.13;5570787;32;34118;-67
2022/04/10 00:58:33;;;;;;;2.17;1.60;;;;;;;4.89;79.78;99859.78;5556777;32;33372;-69
2022/04/10 01:01:37;;;;;;;2.95;2.00;;;;;;;4.75;79.89;99861.06;5570593;32;34137;-66
2022/04/10 01:05:01;;;;;;;2.62;1.45;;;;;;;4.83;79.38;99871.69;5556800;32;32518;-67
2022/04/10 01:08:04;;;;;;;2.22;1.58;;;;;;;4.68;80.71;99883.62;5570696;32;34343;-67
2022/04/10 01:11:07;;;;;;;2.67;1.48;;;;;;;4.66;81.31;99875.88;5556675;32;34834;-69
2022/04/10 01:14:12;;;;;;;3.40;1.85;;;;;;;4.56;81.48;99890.84;5570364;32;34336;-67
2022/04/10 01:17:16;;;;;;;2.60;1.80;;;;;;;4.57;81.95;99900.38;5570113;32;34891;-66
2022/04/10 01:20:20;;;;;;;2.05;1.40;;;;;;;4.55;82.10;99889.19;5570729;32;34267;-67
2022/04/10 01:23:23;;;;;;;2.75;1.55;;;;;;;4.46;82.92;99895.28;5570404;32;34268;-68
2022/04/10 01:26:27;;;;;;;3.58;1.95;;;;;;;4.41;82.85;99900.13;5570537;32;34370;-68
2022/04/10 01:29:30;;;;;;;2.35;1.80;;;;;;;4.34;84.24;99905.12;5570083;32;34995;-68
2022/04/10 01:32:33;;;;;;;3.20;1.73;;;;;;;4.33;85.21;99908.72;5556084;32;33320;-67
2022/04/10 01:35:37;;;;;;;3.00;1.70;;;;;;;4.19;86.07;99905.69;5556549;32;32973;-68
2022/04/10 01:38:42;;;;;;;3.28;2.03;;;;;;;4.18;85.75;99917.97;5570324;32;34168;-67
2022/04/10 01:41:46;;;;;;;2.20;1.70;;;;;;;4.22;86.16;99921.12;5556521;32;32577;-67
2022/04/10 01:44:49;;;;;;;2.60;1.90;;;;;;;4.12;86.61;99930.81;5556578;32;34550;-68
2022/04/10 01:47:52;;;;;;;3.25;1.87;;;;;;;4.08;86.90;99919.75;5570117;32;34144;-68
2022/04/10 01:50:55;;;;;;;3.10;1.90;;;;;;;4.03;87.32;99921.12;5569887;32;34263;-69
2022/04/10 01:54:01;;;;;;;5.12;2.00;;;;;;;3.97;87.33;99919.88;5556053;32;33850;-68
2022/04/10 01:57:05;;;;;;;3.53;1.95;;;;;;;3.94;88.57;99923.63;5570432;32;34144;-68
2022/04/10 02:00:09;;;;;;;5.03;2.20;;;;;;;3.90;89.04;99921.41;5569909;32;34176;-68
2022/04/10 02:03:14;;;;;;;4.30;2.30;;;;;;;3.88;88.89;99939.06;5555511;32;34068;-68
2022/04/10 02:06:17;;;;;;;3.08;2.20;;;;;;;3.77;89.75;99933.97;5569835;32;35572;-68
2022/04/10 02:09:20;;;;;;;4.20;2.20;;;;;;;3.75;90.01;99944.59;5556605;32;35460;-68
2022/04/10 02:12:24;;;;;;;5.90;2.72;;;;;;;3.66;90.79;99942.78;5569892;32;34965;-68
2022/04/10 02:15:26;;;;;;;3.20;2.40;;;;;;;3.62;91.92;99938.78;5556580;32;34161;-69
2022/04/10 02:18:29;;;;;;;3.97;2.50;;;;;;;3.53;92.51;99950.06;5569851;32;35448;-68
2022/04/10 02:21:32;;;;;;;4.20;2.80;;;;;;;3.49;93.73;99952.09;5556308;32;34259;-68
2022/04/10 02:24:35;;;;;;;4.12;2.75;;;;;;;3.49;93.02;99953.88;5569752;32;34270;-69
2022/04/10 02:27:37;;;;;;;4.68;2.55;;;;;;;3.35;94.60;99957.72;5570038;32;34253;-67
2022/04/10 02:30:40;;;;;;;3.80;2.62;;;;;;;3.41;94.95;99964.22;5569428;32;35455;-67
2022/04/10 02:33:43;;;;;;;4.15;2.87;;;;;;;3.26;96.14;99966.38;5569616;32;34128;-68
2022/04/10 02:36:45;;;;;;;4.10;2.80;;;;;;;3.17;96.51;99967.16;5555845;32;32817;-68
2022/04/10 02:39:48;;;;;;;3.87;2.75;;;;;;;3.33;95.86;99977.16;5569457;32;34133;-69
2022/04/10 02:42:51;;;;;;;3.70;2.87;;;;;;;3.05;97.27;99976.03;5569922;32;34211;-68
2022/04/10 02:45:54;;;;;;;5.68;3.10;;;;;;;3.06;97.88;99988.19;5569804;32;34264;-68
2022/04/10 02:48:56;;;;;;;5.25;2.95;;;;;;;2.95;97.76;99983.84;5569337;32;34242;-68
2022/04/10 02:51:59;;;;;;;4.85;3.37;;;;;;;2.95;98.32;99978.63;5555694;32;34188;-68
2022/04/10 02:55:02;;;;;;;5.90;3.05;;;;;;;2.88;98.14;99992.38;5569545;32;34284;-68
2022/04/10 02:58:07;;;;;;;3.37;2.53;;;;;;;2.79;98.84;99990.53;5569279;32;35543;-68
2022/04/10 03:01:09;;;;;;;4.70;3.03;;;;;;;2.84;99.09;99996.22;5569262;32;34124;-68
2022/04/10 03:04:13;;;;;;;4.10;3.05;;;;;;;2.79;98.63;99993.97;5569161;32;34870;-68
2022/04/10 03:07:16;;;;;;;4.57;2.95;;;;;;;2.81;98.93;99993.84;5569322;32;34285;-68
2022/04/10 03:10:19;;;;;;;6.10;3.55;;;;;;;2.78;99.67;100004.56;5554963;32;32684;-68
2022/04/10 03:13:21;;;;;;;3.42;2.92;;;;;;;2.75;99.45;99995.19;5568939;32;34161;-69
2022/04/10 03:16:28;;;;;;;3.83;2.95;;;;;;;2.74;99.29;99996.13;5569950;32;34118;-69
2022/04/10 03:19:31;;;;;;;4.18;3.08;;;;;;;2.75;99.26;100004.84;5557602;32;34179;-67
2022/04/10 03:22:34;;;;;;;4.03;2.83;;;;;;;2.72;99.23;100005.06;5571332;32;34299;-68
2022/04/10 03:25:37;;;;;;;4.82;2.80;;;;;;;2.74;98.78;100011.84;5571193;32;34187;-68
2022/04/10 03:28:41;;;;;;;3.60;2.60;;;;;;;2.71;98.65;100019.16;5571677;32;35385;-68
2022/04/10 03:31:46;;;;;;;4.78;2.95;;;;;;;2.67;99.83;100028.19;5557437;32;34266;-67
2022/04/10 03:34:49;;;;;;;4.07;3.12;;;;;;;2.71;99.26;100032.25;5571225;32;34498;-67
2022/04/10 03:37:52;;;;;;;4.37;2.97;;;;;;;2.74;99.50;100032.81;5571198;32;34231;-67
2022/04/10 03:40:55;;;;;;;4.12;2.78;;;;;;;2.67;100.00;100038.66;5571446;32;34925;-67
2022/04/10 03:43:58;;;;;;;3.22;2.45;;;;;;;2.69;100.00;100045.44;5571438;32;34874;-68
2022/04/10 03:47:01;;;;;;;3.65;2.80;;;;;;;2.65;100.00;100041.44;5557433;32;34240;-67
2022/04/10 03:50:06;;;;;;;4.37;3.00;;;;;;;2.66;100.00;100050.94;5570952;32;34794;-67
2022/04/10 03:53:09;;;;;;;5.18;3.00;;;;;;;2.60;100.00;100041.81;5571282;32;34296;-68
2022/04/10 03:56:11;;;;;;;3.78;2.85;;;;;;;2.63;100.00;100046.78;5571035;32;34476;-67
2022/04/10 03:59:14;;;;;;;4.50;2.75;;;;;;;2.66;100.00;100044.88;5570877;32;34153;-68
2022/04/10 04:02:17;;;;;;;4.93;3.20;;;;;;;2.57;100.00;100049.06;5570914;32;34841;-67
2022/04/10 04:05:21;;;;;;;5.15;2.90;;;;;;;2.56;100.00;100050.87;5557734;32;35560;-67
2022/04/10 04:08:24;;;;;;;6.32;3.28;;;;;;;2.48;100.00;100055.88;5557301;32;34213;-68
2022/04/10 04:11:27;;;;;;;5.22;3.28;;;;;;;2.48;100.00;100061.13;5570823;32;34104;-68
2022/04/10 04:14:30;;;;;;;4.80;3.17;;;;;;;2.47;100.00;100056.81;5571101;32;34608;-68
2022/04/10 04:17:33;;;;;;;4.03;3.28;;;;;;;2.53;100.00;100055.50;5570781;32;34264;-68
2022/04/10 04:20:35;;;;;;;5.25;3.40;;;;;;;2.47;100.00;100059.44;5570685;32;34265;-67
2022/04/10 04:23:39;;;;;;;6.35;3.20;;;;;;;2.57;100.00;100067.37;5570758;32;34621;-67
2022/04/10 04:26:42;;;;;;;6.07;3.45;;;;;;;2.51;100.00;100071.37;5570628;32;34259;-67
2022/04/10 04:29:45;;;;;;;6.10;3.42;;;;;;;2.53;100.00;100066.81;5570478;32;34323;-67
2022/04/10 04:32:47;;;;;;;4.45;3.30;;;;;;;2.55;100.00;100067.53;5570451;32;34166;-67
2022/04/10 04:35:50;;;;;;;4.57;3.03;;;;;;;2.50;100.00;100072.31;5570363;32;34363;-68
2022/04/10 04:38:56;;;;;;;5.00;3.30;;;;;;;2.58;100.00;100064.66;5570381;32;34390;-68
2022/04/10 04:41:59;;;;;;;4.70;3.20;;;;;;;2.60;100.00;100077.63;5556586;32;34275;-68
2022/04/10 04:45:04;;;;;;;6.00;3.37;;;;;;;2.67;100.00;100086.62;5570415;32;34832;-68
2022/04/10 04:48:07;;;;;;;4.50;3.25;;;;;;;2.67;100.00;100089.25;5556700;32;32712;-67
2022/04/10 04:51:14;;;;;;;3.40;2.90;;;;;;;2.69;100.00;100089.13;5570422;32;34829;-67
2022/04/10 04:54:17;;;;;;;4.43;2.80;;;;;;;2.69;100.00;100095.22;5570715;32;34809;-69
2022/04/10 04:57:20;;;;;;;5.43;2.95;;;;;;;2.71;100.00;100095.09;5556477;32;32868;-67
2022/04/10 05:00:23;;;;;;;4.05;2.65;;;;;;;2.83;100.00;100100.16;5570432;32;34786;-68
2022/04/10 05:03:26;;;;;;;5.70;2.80;;;;;;;2.98;98.44;100103.31;5570466;32;34190;-67
2022/04/10 05:06:29;;;;;;;5.85;3.37;;;;;;;3.05;98.43;100100.03;5556855;32;34948;-68
2022/04/10 05:09:32;;;;;;;4.55;3.05;;;;;;;3.17;97.43;100115.72;5555774;32;34292;-69
2022/04/10 05:12:35;;;;;;;6.03;3.17;;;;;;;3.19;96.67;100111.19;5543476;32;33404;-67
2022/04/10 05:15:38;;;;;;;5.00;3.28;;;;;;;3.28;96.53;100126.16;5557001;32;34327;-69
2022/04/10 05:18:41;;;;;;;4.28;3.00;;;;;;;3.28;96.03;100120.91;5556612;32;34362;-68
2022/04/10 05:21:43;;;;;;;3.42;2.60;;;;;;;3.36;95.18;100124.56;5556459;32;34313;-68
2022/04/10 05:24:46;;;;;;;4.60;3.08;;;;;;;3.46;94.77;100127.25;5570321;32;34226;-68
2022/04/10 05:27:49;;;;;;;5.85;3.37;;;;;;;3.53;93.84;100123.16;5555735;32;33455;-67
2022/04/10 05:30:52;;;;;;;3.78;3.03;;;;;;;3.62;93.43;100130.25;5556181;32;33573;-69
2022/04/10 05:33:56;;;;;;;3.78;2.90;;;;;;;3.73;93.06;100129.31;5570150;32;34292;-68
2022/04/10 05:36:59;;;;;;;4.72;3.17;;;;;;;3.76;92.17;100140.41;5556279;32;34559;-68
2022/04/10 05:40:02;;;;;;;4.03;2.83;;;;;;;3.84;92.16;100143.19;5555135;32;33081;-67
2022/04/10 05:43:05;;;;;;;4.18;2.92;;;;;;;3.89;91.38;100142.78;5570023;32;34648;-66
2022/04/10 05:46:08;;;;;;;6.32;3.20;;;;;;;4.01;90.29;100151.44;5570147;32;35453;-67
2022/04/10 05:49:12;;;;;;;4.28;2.60;;;;;;;3.91;90.28;100154.00;5555874;32;33472;-68
2022/04/10 05:52:15;;;;;;;3.28;2.37;;;;;;;4.08;90.59;100160.41;5569834;32;34997;-68
2022/04/10 05:55:18;;;;;;;3.65;2.53;;;;;;;4.05;89.66;100161.53;5556164;32;33590;-71
2022/04/10 05:58:21;;;;;;;5.53;2.90;;;;;;;4.19;88.63;100162.97;5556398;32;34894;-68
2022/04/10 06:01:24;;;;;;;3.40;2.33;;;;;;;4.39;88.61;100169.94;5556240;32;32737;-68
2022/04/10 06:04:28;;;;;;;2.87;2.05;;;;;;;4.54;87.53;100176.50;5555701;32;32839;-69
2022/04/10 06:07:30;;;;;;;4.90;2.47;;;;;;;4.61;86.52;100169.72;5570088;32;34317;-69
2022/04/10 06:10:33;;;;;;;3.78;2.58;;;;;;;4.66;86.11;100175.41;5556147;32;32831;-69
2022/04/10 06:13:36;;;;;;;3.12;2.35;;;;;;;4.82;84.84;100180.16;5570121;32;34860;-68
2022/04/10 06:16:40;;;;;;;4.37;2.65;;;;;;;4.96;84.09;100182.38;5570096;32;34377;-69
2022/04/10 06:19:43;;;;;;;5.22;2.75;;;;;;;5.04;83.66;100181.69;5555747;32;33133;-68
2022/04/10 06:22:47;;;;;;;3.40;2.30;;;;;;;5.00;83.58;100186.41;5570027;32;34167;-69
2022/04/10 06:25:51;;;;;;;3.40;2.30;;;;;;;5.02;83.26;100183.63;5555517;32;32823;-69
2022/04/10 06:28:54;;;;;;;4.70;2.95;;;;;;;5.01;83.33;100180.16;5569555;32;34223;-69
2022/04/10 06:31:57;;;;;;;4.05;2.20;;;;;;;5.10;82.41;100191.66;5569393;32;35378;-69
2022/04/10 06:35:01;;;;;;;3.00;2.30;;;;;;;5.29;81.60;100189.03;5555672;32;34149;-68
2022/04/10 06:38:05;;;;;;;3.50;2.40;;;;;;;5.44;79.97;100192.91;5555824;32;34852;-68
2022/04/10 06:41:09;;;;;;;4.47;2.50;;;;;;;5.56;80.07;100193.59;5569407;32;35595;-71
2022/04/10 06:44:11;;;;;;;4.10;2.50;;;;;;;6.06;78.30;100202.94;5569352;32;35472;-66
2022/04/10 06:47:15;;;;;;;2.62;1.90;;;;;;;6.33;76.26;100202.16;5569233;32;34196;-67
2022/04/10 06:50:18;;;;;;;3.40;2.05;;;;;;;6.95;72.79;100205.84;5553674;32;32873;-68
2022/04/10 06:53:25;;;;;;;3.85;2.00;;;;;;;7.49;71.30;100225.19;5554849;32;33690;-65
2022/04/10 06:56:28;;;;;;;2.62;1.98;;;;;;;7.26;70.77;100224.81;5569280;32;34802;-68
2022/04/10 06:59:31;;;;;;;3.05;1.95;;;;;;;7.60;68.41;100225.75;5569181;32;34864;-69
2022/04/10 07:02:35;;;;;;;3.45;1.87;;;;;;;7.56;69.34;100228.84;5555014;32;32713;-70
2022/04/10 07:05:39;;;;;;;2.47;1.83;;;;;;;8.02;67.15;100223.28;5569003;32;34277;-68
2022/04/10 07:08:43;;;;;;;3.42;1.80;;;;;;;8.32;65.95;100215.91;5555118;32;32719;-68
2022/04/10 07:11:46;;;;;;;3.37;1.90;;;;;;;8.83;64.64;100230.81;5568859;32;35644;-68
2022/04/10 07:14:50;;;;;;;3.67;1.87;;;;;;;9.14;62.21;100239.84;5569165;32;34290;-68
2022/04/10 07:17:55;;;;;;;1.95;1.60;;;;;;;9.46;60.49;100231.97;5569228;32;34786;-68
2022/04/10 07:20:57;;;;;;;1.98;1.60;;;;;;;8.35;64.17;100231.44;5554749;32;32996;-70
2022/04/10 07:24:01;;;;;;;2.17;1.42;;;;;;;8.38;63.81;100229.28;5568490;32;34084;-69
2022/04/10 07:27:05;;;;;;;3.50;1.40;;;;;;;9.00;60.32;100248.41;5554598;32;32725;-69
2022/04/10 07:30:09;;;;;;;2.22;1.50;;;;;;;9.74;56.69;100247.53;5554402;32;32643;-68
2022/04/10 07:33:15;;;;;;;1.75;1.45;;;;;;;9.78;56.24;100249.66;5554731;32;33585;-69
2022/04/10 07:36:18;;;;;;;1.95;1.35;;;;;;;10.03;55.16;100242.53;5568666;32;34201;-69
2022/04/10 07:39:21;;;;;;;1.50;1.20;;;;;;;10.79;54.04;100248.19;5554679;32;32668;-69
2022/04/10 07:42:27;;;;;;;2.50;1.33;;;;;;;11.88;49.01;100242.69;5568307;32;34522;-70
2022/04/10 07:49:08;;;;;;;1.58;1.17;;;;;;;11.40;49.44;100256.31;5554097;32;33103;-70
2022/04/10 07:52:13;;;;;;;1.80;1.30;;;;;;;11.20;49.52;100248.81;5554346;32;32644;-71
2022/04/10 07:55:17;;;;;;;1.67;1.30;;;;;;;11.09;50.33;100254.50;5554753;32;34518;-71
2022/04/10 07:58:20;;;;;;;2.90;1.12;;;;;;;11.02;49.35;100256.22;5554555;32;33630;-70
2022/04/10 08:01:23;;;;;;;3.72;1.40;;;;;;;12.14;46.63;100255.59;5541802;32;32597;-70
2022/04/10 08:04:27;;;;;;;1.92;1.30;;;;;;;11.22;48.48;100270.72;5556535;32;32566;-68
2022/04/10 08:07:30;;;;;;;2.60;1.20;;;;;;;10.97;49.88;100268.34;5571252;32;34288;-70
2022/04/10 08:10:33;;;;;;;2.10;1.25;;;;;;;11.32;49.34;100279.28;5557273;32;34896;-71
2022/04/10 08:13:35;;;;;;;3.12;1.10;;;;;;;11.19;48.18;100283.47;5556548;32;33618;-68
2022/04/10 08:16:39;;;;;;;2.25;1.30;;;;;;;11.19;47.98;100284.31;5557073;32;32677;-70
2022/04/10 08:19:42;;;;;;;2.28;1.27;;;;;;;11.51;47.24;100274.53;5556629;32;32707;-69
2022/04/10 08:22:48;;;;;;;2.65;1.20;;;;;;;11.98;46.16;100274.34;5556643;32;33655;-70
2022/04/10 08:25:51;;;;;;;4.05;1.30;;;;;;;12.40;45.05;100269.28;5570561;32;34833;-69
2022/04/10 08:28:54;;;;;;;1.35;0.95;;;;;;;12.90;43.38;100270.38;5556804;32;33961;-69
2022/04/10 08:31:56;;;;;;;3.53;1.00;;;;;;;13.31;42.71;100282.19;5556482;32;32658;-69
2022/04/10 08:34:59;;;;;;;1.60;0.93;;;;;;;15.29;38.19;100273.84;5555570;32;32632;-68
2022/04/10 08:38:02;;;;;;;2.90;1.20;;;;;;;14.46;38.15;100272.19;5556580;32;34271;-69
2022/04/10 08:41:07;;;;;;;1.37;1.00;;;;;;;13.86;41.03;100280.69;5556344;32;32902;-70
2022/04/10 08:44:10;;;;;;;1.50;1.00;;;;;;;14.82;39.30;100279.16;5556655;32;34312;-69
2022/04/10 08:47:20;;;;;;;2.25;0.80;;;;;;;14.37;40.60;100277.87;5570463;32;34174;-69
2022/04/10 08:50:24;;;;;;;1.45;1.00;;;;;;;14.50;39.41;100272.62;5556205;32;33042;-69
2022/04/10 08:53:29;;;;;;;1.85;1.10;;;;;;;15.40;38.26;100280.41;5556204;32;33411;-69
2022/04/10 08:56:31;;;;;;;2.03;1.10;;;;;;;16.41;35.72;100279.34;5555882;32;32832;-70
2022/04/10 08:59:34;;;;;;;2.03;1.10;;;;;;;14.73;38.08;100273.16;5556787;32;34590;-69
2022/04/10 09:02:50;;;;;;;2.62;1.00;;;;;;;13.79;40.48;100288.66;5569798;32;34404;-68
2022/04/10 09:06:09;;;;;;;3.78;1.08;;;;;;;13.32;41.13;100278.50;5555729;32;34221;-69
2022/04/10 09:09:14;;;;;;;1.58;1.05;;;;;;;12.70;42.74;100274.63;5556230;32;34331;-68
2022/04/10 09:12:17;;;;;;;1.33;1.10;;;;;;;12.94;43.86;100283.16;5570078;32;34294;-68
2022/04/10 09:15:31;;;;;;;2.10;1.08;;;;;;;11.63;46.31;100278.41;5555618;32;33609;-69
2022/04/10 09:18:54;;;;;;;2.95;1.30;;;;;;;10.05;50.60;100277.66;5555932;32;32694;-68
2022/04/10 09:22:20;;;;;;;2.85;1.10;;;;;;;10.21;50.27;100279.53;5555951;32;32745;-70
2022/04/10 09:25:23;;;;;;;1.80;1.30;;;;;;;10.04;49.95;100284.78;5556032;32;32695;-69
2022/04/10 09:28:47;;;;;;;1.75;1.10;;;;;;;10.38;49.16;100287.25;5556051;32;33033;-69
2022/04/10 09:31:54;;;;;;;1.83;1.52;;;;;;;10.25;49.89;100273.72;5555544;32;32985;-67
2022/04/10 09:35:04;;;;;;;1.62;1.10;;;;;;;10.23;51.00;100283.66;5569725;32;34844;-70
2022/04/10 09:38:07;;;;;;;1.95;1.30;;;;;;;10.22;52.07;100279.31;5556230;32;34916;-67
2022/04/10 09:41:15;;;;;;;1.98;1.12;;;;;;;10.50;51.79;100285.09;5555837;32;32762;-68
2022/04/10 09:44:22;;;;;;;2.90;1.12;;;;;;;10.30;51.00;100287.28;5556409;32;32875;-68
2022/04/10 09:47:26;;;;;;;2.25;1.33;;;;;;;10.03;52.35;100299.03;5570304;32;34352;-68
2022/04/10 09:50:32;;;;;;;2.05;1.10;;;;;;;10.11;50.67;100287.63;5556025;32;32726;-68
2022/04/10 09:53:36;;;;;;;3.70;1.50;;;;;;;10.18;51.03;100291.25;5555882;32;33016;-67
2022/04/10 09:56:40;;;;;;;1.35;1.10;;;;;;;10.29;50.59;100301.53;5556064;32;33972;-67
2022/04/10 09:59:51;;;;;;;1.73;1.08;;;;;;;9.96;50.61;100300.69;5542748;32;34239;-68
2022/04/10 10:02:55;;;;;;;2.35;1.10;;;;;;;9.56;51.24;100301.50;5568885;32;34620;-68
2022/04/10 10:05:58;;;;;;;2.80;1.33;;;;;;;9.51;50.40;100289.72;5555581;32;32699;-68
2022/04/10 10:09:01;;;;;;;2.62;1.12;;;;;;;9.85;51.37;100290.44;5555189;32;34396;-67
2022/04/10 10:12:05;;;;;;;1.65;1.00;;;;;;;10.11;50.60;100297.38;5569494;32;34307;-68
2022/04/10 10:15:09;;;;;;;2.95;1.02;;;;;;;10.24;49.32;100295.06;5569417;32;35549;-68
2022/04/10 10:18:13;;;;;;;1.15;0.90;;;;;;;10.28;49.33;100288.44;5569346;32;34615;-69
2022/04/10 10:21:16;;;;;;;1.80;1.12;;;;;;;10.40;47.63;100289.75;5569692;32;35546;-69
2022/04/10 10:24:22;;;;;;;2.35;1.15;;;;;;;10.45;47.57;100288.25;5555188;32;32720;-69
2022/04/10 10:27:50;;;;;;;3.40;1.10;;;;;;;10.84;47.18;100290.12;5555556;32;32940;-68
2022/04/10 10:31:27;;;;;;;4.20;0.93;;;;;;;10.34;45.80;100279.81;5555324;32;33681;-68
2022/04/10 10:34:31;;;;;;;1.77;1.00;;;;;;;9.99;47.55;100288.94;5555462;32;33570;-68
2022/04/10 10:37:52;;;;;;;2.35;1.20;;;;;;;10.16;47.70;100311.84;5555724;32;33838;-68
2022/04/10 10:41:16;;;;;;;2.78;1.23;;;;;;;9.79;49.07;100295.53;5569643;32;34936;-66
2022/04/10 10:44:26;;;;;;;1.70;1.10;;;;;;;10.40;48.40;100292.41;5569345;32;34452;-67
2022/04/10 10:47:31;;;;;;;1.33;0.77;;;;;;;10.59;47.86;100285.91;5555423;32;32749;-69
2022/04/10 10:50:36;;;;;;;2.58;1.10;;;;;;;13.61;38.71;100274.09;5569133;32;34908;-68
2022/04/10 10:53:47;;;;;;;1.25;0.80;;;;;;;13.32;39.63;100291.84;5555349;32;34373;-67
2022/04/10 10:56:50;;;;;;;1.95;1.05;;;;;;;11.30;45.04;100310.50;5569519;32;34397;-67
2022/04/10 11:00:12;;;;;;;1.37;0.70;;;;;;;12.89;41.24;100288.19;5569031;32;34122;-67
2022/04/10 11:03:15;;;;;;;1.27;0.80;;;;;;;13.42;39.30;100280.87;5569472;32;34316;-68
2022/04/10 11:06:20;;;;;;;1.87;1.20;;;;;;;13.31;40.02;100294.72;5555683;32;34234;-68
2022/04/10 11:09:28;;;;;;;2.00;0.70;;;;;;;15.05;37.08;100285.88;5568732;32;34819;-68
2022/04/10 11:12:33;;;;;;;1.00;0.62;;;;;;;15.42;35.40;100289.91;5542188;32;33015;-68
2022/04/10 11:15:54;;;;;;;1.75;0.80;;;;;;;15.62;35.74;100279.28;5554809;32;33747;-72
2022/04/10 11:19:02;;;;;;;1.87;1.02;;;;;;;15.71;35.61;100270.03;5568837;32;34229;-69
2022/04/10 11:22:07;;;;;;;3.12;0.93;;;;;;;16.47;33.78;100276.62;5568985;32;34343;-68
2022/04/10 11:25:11;;;;;;;1.52;0.90;;;;;;;15.98;35.06;100293.12;5568837;32;34137;-71
2022/04/10 11:28:13;;;;;;;1.98;1.02;;;;;;;13.88;38.93;100276.00;5554532;32;33690;-67
2022/04/10 11:31:36;;;;;;;2.65;0.85;;;;;;;13.80;39.99;100271.63;5568446;32;34179;-67
2022/04/10 11:34:41;;;;;;;2.67;0.90;;;;;;;13.46;38.52;100280.31;5554717;32;33511;-68
2022/04/10 11:37:47;;;;;;;1.67;0.90;;;;;;;13.63;39.35;100269.41;5570255;32;34805;-69
2022/04/10 11:40:52;;;;;;;3.05;0.73;;;;;;;14.45;35.94;100278.53;5571093;32;34304;-70
2022/04/10 11:43:56;;;;;;;1.20;1.00;;;;;;;12.42;39.88;100282.41;5571099;32;34603;-70
2022/04/10 11:47:00;;;;;;;3.25;0.90;;;;;;;13.20;37.54;100272.03;5571193;32;34860;-67
2022/04/10 11:50:06;;;;;;;2.22;0.80;;;;;;;12.70;37.98;100269.28;5571205;32;34547;-68
2022/04/10 11:53:11;;;;;;;1.02;0.77;;;;;;;14.59;35.27;100274.09;5556817;32;33744;-70
2022/04/10 11:56:13;;;;;;;1.05;0.68;;;;;;;14.82;33.49;100268.47;5570717;32;34200;-70
2022/04/10 11:59:16;;;;;;;1.83;1.05;;;;;;;17.19;30.63;100264.06;5556824;32;33651;-69
2022/04/10 12:02:19;;;;;;;2.05;0.70;;;;;;;16.34;30.39;100263.25;5570866;32;35365;-67
2022/04/10 12:05:32;;;;;;;1.23;0.70;;;;;;;18.50;27.41;100270.34;5570830;32;34182;-68
2022/04/10 12:08:35;;;;;;;2.08;0.80;;;;;;;15.42;31.98;100281.88;5570965;32;34252;-66
2022/04/10 12:11:42;;;;;;;1.27;0.88;;;;;;;17.17;29.71;100291.09;5556647;32;33523;-69
2022/04/10 12:14:44;;;;;;;1.15;0.70;;;;;;;17.79;27.81;100281.50;5556552;32;36652;-68
2022/04/10 12:17:49;;;;;;;3.67;0.60;;;;;;;18.58;27.30;100286.25;5556890;32;36107;-68
2022/04/10 12:21:11;;;;;;;0.95;0.68;;;;;;;18.06;28.04;100276.75;5570594;32;35487;-68
2022/04/10 12:24:22;;;;;;;1.15;0.70;;;;;;;17.76;27.30;100280.09;5556716;32;34042;-68
2022/04/10 12:27:25;;;;;;;1.08;0.68;;;;;;;15.76;30.29;100288.97;5570566;32;34147;-68
2022/04/10 12:30:28;;;;;;;2.20;0.70;;;;;;;16.40;30.92;100285.72;5556637;32;32816;-68
2022/04/10 12:33:32;;;;;;;1.55;0.70;;;;;;;17.62;29.53;100291.91;5556804;32;34108;-68
2022/04/10 12:36:45;;;;;;;1.87;0.70;;;;;;;16.46;29.46;100296.41;5556913;32;34243;-70
2022/04/10 12:39:48;;;;;;;1.35;0.50;;;;;;;16.47;28.96;100286.50;5557137;32;34181;-68
2022/04/10 12:42:59;;;;;;;1.58;0.85;;;;;;;15.29;30.47;100283.69;5543487;32;34641;-69
2022/04/10 12:46:10;;;;;;;3.37;0.80;;;;;;;16.17;28.17;100274.63;5570472;32;34204;-69
2022/04/10 12:49:16;;;;;;;1.20;0.77;;;;;;;18.37;26.05;100279.38;5556493;32;32856;-68
2022/04/10 12:52:19;;;;;;;0.70;0.50;;;;;;;18.79;25.29;100274.22;5556747;32;34198;-68
2022/04/10 12:55:30;;;;;;;1.27;0.50;;;;;;;18.97;23.63;100280.44;5556739;32;33414;-67
2022/04/10 12:58:47;;;;;;;0.98;0.70;;;;;;;18.37;24.44;100271.31;5556567;32;32684;-67
2022/04/10 13:01:52;;;;;;;1.17;0.70;;;;;;;17.72;25.57;100283.38;5556553;32;34043;-70
2022/04/10 13:04:57;;;;;;;1.50;0.65;;;;;;;18.19;25.65;100268.59;5570382;32;35044;-68
2022/04/10 13:08:03;;;;;;;2.30;0.70;;;;;;;15.52;27.83;100274.34;5570172;32;34269;-68
2022/04/10 13:11:09;;;;;;;0.93;0.60;;;;;;;16.98;26.28;100289.31;5570600;32;34921;-70
2022/04/10 13:14:32;;;;;;;1.17;0.70;;;;;;;20.29;22.37;100281.22;5570224;32;34217;-69
2022/04/10 13:17:37;;;;;;;1.20;0.50;;;;;;;19.67;23.56;100285.34;5570168;32;34673;-68
2022/04/10 13:20:40;;;;;;;1.05;0.60;;;;;;;18.84;24.52;100285.13;5556561;32;32702;-68
2022/04/10 13:23:43;;;;;;;1.10;0.60;;;;;;;18.07;26.03;100283.75;5570236;32;34925;-68
2022/04/10 13:26:46;;;;;;;2.70;0.70;;;;;;;18.40;25.10;100295.03;5556135;32;32910;-67
2022/04/10 13:29:48;;;;;;;1.70;0.70;;;;;;;19.30;24.50;100308.78;5556277;32;34297;-68
2022/04/10 13:32:51;;;;;;;0.95;0.60;;;;;;;16.54;28.54;100295.38;5556359;32;33072;-69
2022/04/10 13:35:54;;;;;;;1.17;0.90;;;;;;;17.03;26.94;100300.22;5556188;32;32683;-69
2022/04/10 13:38:56;;;;;;;2.05;0.98;;;;;;;16.42;28.48;100294.34;5543505;32;33787;-69
2022/04/10 13:42:03;;;;;;;1.92;0.80;;;;;;;14.83;30.26;100300.34;5556273;32;33350;-69
2022/04/10 13:45:07;;;;;;;1.42;0.80;;;;;;;12.63;34.96;100296.62;5569698;32;34169;-68
2022/04/10 13:48:09;;;;;;;1.52;0.90;;;;;;;11.75;37.83;100298.28;5569650;31;34501;-71
2022/04/10 13:51:13;;;;;;;1.98;1.10;;;;;;;11.50;37.92;100308.22;5570008;32;34546;-66
2022/04/10 13:54:16;;;;;;;2.25;0.80;;;;;;;11.01;38.42;100302.34;5569779;32;34152;-67
2022/04/10 13:57:19;;;;;;;2.33;0.80;;;;;;;11.07;39.45;100308.78;5555688;32;34323;-70
2022/04/10 14:00:22;;;;;;;1.00;0.70;;;;;;;11.89;37.13;100307.31;5555518;32;34404;-67
2022/04/10 14:03:24;;;;;;;0.80;0.70;;;;;;;15.20;29.56;100320.47;5569692;32;35391;-69
2022/04/10 14:06:28;;;;;;;0.95;0.70;;;;;;;16.16;27.22;100308.59;5555986;32;33734;-70
2022/04/10 14:09:31;;;;;;;1.90;0.77;;;;;;;17.73;24.95;100303.81;5555523;32;33592;-69
2022/04/10 14:12:36;;;;;;;1.27;0.85;;;;;;;17.74;26.54;100298.25;5555957;32;32576;-68
2022/04/10 14:15:39;;;;;;;1.45;0.70;;;;;;;15.01;30.23;100314.00;5569542;32;35456;-67
2022/04/10 14:18:42;;;;;;;3.03;0.75;;;;;;;15.23;28.70;100320.88;5570048;32;34863;-67
2022/04/10 14:21:45;;;;;;;1.08;0.70;;;;;;;15.12;27.74;100316.09;5569398;32;34311;-70
2022/04/10 14:24:47;;;;;;;1.58;0.80;;;;;;;12.91;31.32;100314.66;5569259;32;34843;-68
2022/04/10 14:27:51;;;;;;;3.42;0.88;;;;;;;11.97;31.92;100320.53;5555923;32;32916;-69
2022/04/10 14:30:54;;;;;;;1.27;0.77;;;;;;;10.98;34.37;100336.38;5555491;32;33509;-67